sensor_id;sensor_type;location;lat;lon;timestamp;temperature;humidity
3756;DHT22;1893;52.526;13.360;2023-05-17T00:02:05;9.40;99.90
3756;DHT22;1893;52.526;13.360;2023-05-17T00:04:31;9.40;99.90
3756;DHT22;1893;52.526;13.360;2023-05-17T00:06:57;9.30;99.90
3756;DHT22;1893;52.526;13.360;2023-05-17T00:09:23;9.20;99.90
3756;DHT22;1893;52.526;13.360;2023-05-17T00:11:49;9.10;99.90
3756;DHT22;1893;52.526;13.360;2023-05-17T00:14:14;9.20;99.90
3756;DHT22;1893;52.526;13.360;2023-05-17T00:16:40;9.10;99.90
3756;DHT22;1893;52.526;13.360;2023-05-17T00:19:06;9.10;99.90
3756;DHT22;1893;52.526;13.360;2023-05-17T00:21:34;9.10;99.90
3756;DHT22;1893;52.526;13.360;2023-05-17T00:23:59;9.00;99.90
3756;DHT22;1893;52.526;13.360;2023-05-17T00:26:25;9.00;99.90
3756;DHT22;1893;52.526;13.360;2023-05-17T00:28:50;8.90;99.90
3756;DHT22;1893;52.526;13.360;2023-05-17T00:31:16;9.00;99.90
3756;DHT22;1893;52.526;13.360;2023-05-17T00:33:42;9.00;99.90
3756;DHT22;1893;52.526;13.360;2023-05-17T00:36:07;8.90;99.90
3756;DHT22;1893;52.526;13.360;2023-05-17T00:38:33;8.90;99.90
3756;DHT22;1893;52.526;13.360;2023-05-17T00:40:58;8.80;99.90
3756;DHT22;1893;52.526;13.360;2023-05-17T00:43:24;8.80;99.90
3756;DHT22;1893;52.526;13.360;2023-05-17T00:45:50;8.70;99.90
3756;DHT22;1893;52.526;13.360;2023-05-17T00:48:17;8.80;99.90
3756;DHT22;1893;52.526;13.360;2023-05-17T00:50:45;8.70;99.90
3756;DHT22;1893;52.526;13.360;2023-05-17T00:53:11;8.80;99.90
3756;DHT22;1893;52.526;13.360;2023-05-17T00:55:42;8.70;99.90
3756;DHT22;1893;52.526;13.360;2023-05-17T00:58:08;8.70;99.90
3756;DHT22;1893;52.526;13.360;2023-05-17T01:00:34;8.60;99.90
3756;DHT22;1893;52.526;13.360;2023-05-17T01:02:59;8.70;99.90
3756;DHT22;1893;52.526;13.360;2023-05-17T01:05:25;8.60;99.90
3756;DHT22;1893;52.526;13.360;2023-05-17T01:07:52;8.50;99.90
3756;DHT22;1893;52.526;13.360;2023-05-17T01:10:18;8.50;99.90
3756;DHT22;1893;52.526;13.360;2023-05-17T01:12:59;8.50;99.90
3756;DHT22;1893;52.526;13.360;2023-05-17T01:15:30;8.50;99.90
3756;DHT22;1893;52.526;13.360;2023-05-17T01:20:42;8.60;99.90
3756;DHT22;1893;52.526;13.360;2023-05-17T01:26:05;8.50;99.90
3756;DHT22;1893;52.526;13.360;2023-05-17T01:28:33;8.50;99.90
3756;DHT22;1893;52.526;13.360;2023-05-17T01:31:02;8.50;99.90
3756;DHT22;1893;52.526;13.360;2023-05-17T01:33:29;8.50;99.90
3756;DHT22;1893;52.526;13.360;2023-05-17T01:35:55;8.50;99.90
3756;DHT22;1893;52.526;13.360;2023-05-17T01:38:21;8.60;99.90
3756;DHT22;1893;52.526;13.360;2023-05-17T01:41:12;8.40;99.90
3756;DHT22;1893;52.526;13.360;2023-05-17T01:43:50;8.50;99.90
3756;DHT22;1893;52.526;13.360;2023-05-17T01:46:38;8.50;99.90
3756;DHT22;1893;52.526;13.360;2023-05-17T01:49:10;8.40;99.90
3756;DHT22;1893;52.526;13.360;2023-05-17T01:51:47;8.40;99.90
3756;DHT22;1893;52.526;13.360;2023-05-17T01:54:14;8.30;99.90
3756;DHT22;1893;52.526;13.360;2023-05-17T01:56:50;8.40;99.90
3756;DHT22;1893;52.526;13.360;2023-05-17T01:59:19;8.40;99.90
3756;DHT22;1893;52.526;13.360;2023-05-17T02:01:47;8.40;99.90
3756;DHT22;1893;52.526;13.360;2023-05-17T02:04:13;8.30;99.90
3756;DHT22;1893;52.526;13.360;2023-05-17T02:06:39;8.30;99.90
3756;DHT22;1893;52.526;13.360;2023-05-17T02:09:05;8.30;99.90
3756;DHT22;1893;52.526;13.360;2023-05-17T02:11:30;8.30;99.90
3756;DHT22;1893;52.526;13.360;2023-05-17T02:13:56;8.30;99.90
3756;DHT22;1893;52.526;13.360;2023-05-17T02:16:23;8.30;99.90
3756;DHT22;1893;52.526;13.360;2023-05-17T02:18:48;8.30;99.90
3756;DHT22;1893;52.526;13.360;2023-05-17T02:21:14;8.30;99.90
3756;DHT22;1893;52.526;13.360;2023-05-17T02:23:42;8.40;99.90
3756;DHT22;1893;52.526;13.360;2023-05-17T02:26:08;8.30;99.90
3756;DHT22;1893;52.526;13.360;2023-05-17T02:28:34;8.40;99.90
3756;DHT22;1893;52.526;13.360;2023-05-17T02:30:59;8.40;99.90
3756;DHT22;1893;52.526;13.360;2023-05-17T02:33:25;8.60;99.90
3756;DHT22;1893;52.526;13.360;2023-05-17T02:35:51;8.60;99.90
3756;DHT22;1893;52.526;13.360;2023-05-17T02:38:17;8.60;99.90
3756;DHT22;1893;52.526;13.360;2023-05-17T02:40:43;8.50;99.90
3756;DHT22;1893;52.526;13.360;2023-05-17T02:43:08;8.50;99.90
3756;DHT22;1893;52.526;13.360;2023-05-17T02:45:34;8.60;99.90
3756;DHT22;1893;52.526;13.360;2023-05-17T02:47:59;8.60;99.90
3756;DHT22;1893;52.526;13.360;2023-05-17T02:50:25;8.70;99.90
3756;DHT22;1893;52.526;13.360;2023-05-17T02:52:50;8.60;99.90
3756;DHT22;1893;52.526;13.360;2023-05-17T02:55:16;8.70;99.90
3756;DHT22;1893;52.526;13.360;2023-05-17T02:57:42;8.70;99.90
3756;DHT22;1893;52.526;13.360;2023-05-17T03:00:07;8.70;99.90
3756;DHT22;1893;52.526;13.360;2023-05-17T03:02:34;8.70;99.90
3756;DHT22;1893;52.526;13.360;2023-05-17T03:04:59;8.80;99.90
3756;DHT22;1893;52.526;13.360;2023-05-17T03:07:25;8.80;99.90
3756;DHT22;1893;52.526;13.360;2023-05-17T03:09:50;8.80;99.90
3756;DHT22;1893;52.526;13.360;2023-05-17T03:12:16;8.90;99.90
3756;DHT22;1893;52.526;13.360;2023-05-17T03:14:41;8.90;99.90
3756;DHT22;1893;52.526;13.360;2023-05-17T03:17:07;8.90;99.90
3756;DHT22;1893;52.526;13.360;2023-05-17T03:19:32;8.80;99.90
3756;DHT22;1893;52.526;13.360;2023-05-17T03:21:58;8.70;99.90
3756;DHT22;1893;52.526;13.360;2023-05-17T03:24:24;8.70;99.90
3756;DHT22;1893;52.526;13.360;2023-05-17T03:26:50;8.70;99.90
3756;DHT22;1893;52.526;13.360;2023-05-17T03:29:15;8.70;99.90
3756;DHT22;1893;52.526;13.360;2023-05-17T03:31:41;8.70;99.90
3756;DHT22;1893;52.526;13.360;2023-05-17T03:34:06;8.60;99.90
3756;DHT22;1893;52.526;13.360;2023-05-17T03:36:36;8.70;99.90
3756;DHT22;1893;52.526;13.360;2023-05-17T03:39:03;8.70;99.90
3756;DHT22;1893;52.526;13.360;2023-05-17T03:41:30;8.80;99.90
3756;DHT22;1893;52.526;13.360;2023-05-17T03:43:56;8.80;99.90
3756;DHT22;1893;52.526;13.360;2023-05-17T03:46:22;8.90;99.90
3756;DHT22;1893;52.526;13.360;2023-05-17T03:48:48;8.90;99.90
3756;DHT22;1893;52.526;13.360;2023-05-17T03:51:14;8.90;99.90
3756;DHT22;1893;52.526;13.360;2023-05-17T03:53:40;9.00;99.90
3756;DHT22;1893;52.526;13.360;2023-05-17T03:56:08;8.90;99.90
3756;DHT22;1893;52.526;13.360;2023-05-17T03:58:34;8.90;99.90
3756;DHT22;1893;52.526;13.360;2023-05-17T04:01:00;8.70;99.90
3756;DHT22;1893;52.526;13.360;2023-05-17T04:03:25;8.80;99.90
3756;DHT22;1893;52.526;13.360;2023-05-17T04:05:51;8.80;99.90
3756;DHT22;1893;52.526;13.360;2023-05-17T04:08:16;8.70;99.90
3756;DHT22;1893;52.526;13.360;2023-05-17T04:10:42;8.80;99.90
3756;DHT22;1893;52.526;13.360;2023-05-17T04:13:08;8.70;99.90
3756;DHT22;1893;52.526;13.360;2023-05-17T04:15:34;8.70;1.00
3756;DHT22;1893;52.526;13.360;2023-05-17T04:18:00;8.70;1.00
3756;DHT22;1893;52.526;13.360;2023-05-17T04:20:26;8.60;1.00
3756;DHT22;1893;52.526;13.360;2023-05-17T04:22:51;8.60;16.80
3756;DHT22;1893;52.526;13.360;2023-05-17T04:25:17;8.60;99.90
3756;DHT22;1893;52.526;13.360;2023-05-17T04:27:44;8.70;33.10
3756;DHT22;1893;52.526;13.360;2023-05-17T04:30:11;8.70;1.00
3756;DHT22;1893;52.526;13.360;2023-05-17T04:32:36;8.70;18.60
3756;DHT22;1893;52.526;13.360;2023-05-17T04:35:02;8.80;1.00
3756;DHT22;1893;52.526;13.360;2023-05-17T04:37:28;8.70;1.00
3756;DHT22;1893;52.526;13.360;2023-05-17T04:39:55;8.80;1.00
3756;DHT22;1893;52.526;13.360;2023-05-17T04:42:20;8.80;1.00
3756;DHT22;1893;52.526;13.360;2023-05-17T04:44:46;8.70;1.00
3756;DHT22;1893;52.526;13.360;2023-05-17T04:47:12;8.80;1.00
3756;DHT22;1893;52.526;13.360;2023-05-17T04:49:38;8.70;1.00
3756;DHT22;1893;52.526;13.360;2023-05-17T04:52:03;8.70;1.00
3756;DHT22;1893;52.526;13.360;2023-05-17T04:54:29;8.80;1.00
3756;DHT22;1893;52.526;13.360;2023-05-17T04:56:55;8.80;1.00
3756;DHT22;1893;52.526;13.360;2023-05-17T04:59:20;8.90;1.00
3756;DHT22;1893;52.526;13.360;2023-05-17T05:01:46;8.90;1.00
3756;DHT22;1893;52.526;13.360;2023-05-17T05:04:12;8.90;1.00
3756;DHT22;1893;52.526;13.360;2023-05-17T05:06:37;9.00;1.00
3756;DHT22;1893;52.526;13.360;2023-05-17T05:09:03;9.00;99.90
3756;DHT22;1893;52.526;13.360;2023-05-17T05:11:29;9.10;99.90
3756;DHT22;1893;52.526;13.360;2023-05-17T05:13:56;9.10;99.90
3756;DHT22;1893;52.526;13.360;2023-05-17T05:16:23;9.20;99.90
3756;DHT22;1893;52.526;13.360;2023-05-17T05:18:49;9.30;99.90
3756;DHT22;1893;52.526;13.360;2023-05-17T05:21:14;9.40;99.90
3756;DHT22;1893;52.526;13.360;2023-05-17T05:23:40;9.30;99.90
3756;DHT22;1893;52.526;13.360;2023-05-17T05:26:06;9.40;99.90
3756;DHT22;1893;52.526;13.360;2023-05-17T05:28:31;9.50;99.90
3756;DHT22;1893;52.526;13.360;2023-05-17T05:31:00;9.70;99.90
3756;DHT22;1893;52.526;13.360;2023-05-17T05:33:25;9.70;99.90
3756;DHT22;1893;52.526;13.360;2023-05-17T05:35:51;9.70;99.90
3756;DHT22;1893;52.526;13.360;2023-05-17T05:38:17;9.50;99.90
3756;DHT22;1893;52.526;13.360;2023-05-17T05:40:45;9.60;99.90
3756;DHT22;1893;52.526;13.360;2023-05-17T05:43:12;9.70;99.90
3756;DHT22;1893;52.526;13.360;2023-05-17T05:45:38;9.70;99.90
3756;DHT22;1893;52.526;13.360;2023-05-17T05:48:12;9.60;99.90
3756;DHT22;1893;52.526;13.360;2023-05-17T05:50:42;9.60;99.90
3756;DHT22;1893;52.526;13.360;2023-05-17T05:53:09;9.80;99.90
3756;DHT22;1893;52.526;13.360;2023-05-17T05:55:35;9.80;99.90
3756;DHT22;1893;52.526;13.360;2023-05-17T05:58:00;9.70;99.90
3756;DHT22;1893;52.526;13.360;2023-05-17T06:00:26;9.70;99.90
3756;DHT22;1893;52.526;13.360;2023-05-17T06:02:52;9.80;99.90
3756;DHT22;1893;52.526;13.360;2023-05-17T06:05:18;9.80;99.90
3756;DHT22;1893;52.526;13.360;2023-05-17T06:07:43;10.10;99.90
3756;DHT22;1893;52.526;13.360;2023-05-17T06:10:09;10.30;99.90
3756;DHT22;1893;52.526;13.360;2023-05-17T06:12:35;10.30;99.90
3756;DHT22;1893;52.526;13.360;2023-05-17T06:15:01;10.30;99.90
3756;DHT22;1893;52.526;13.360;2023-05-17T06:17:28;10.20;99.90
3756;DHT22;1893;52.526;13.360;2023-05-17T06:19:53;9.90;99.90
3756;DHT22;1893;52.526;13.360;2023-05-17T06:22:19;9.80;99.90
3756;DHT22;1893;52.526;13.360;2023-05-17T06:24:45;9.90;99.90
3756;DHT22;1893;52.526;13.360;2023-05-17T06:27:10;10.00;99.90
3756;DHT22;1893;52.526;13.360;2023-05-17T06:29:36;9.90;99.90
3756;DHT22;1893;52.526;13.360;2023-05-17T06:32:01;9.60;99.90
3756;DHT22;1893;52.526;13.360;2023-05-17T06:34:27;9.80;99.90
3756;DHT22;1893;52.526;13.360;2023-05-17T06:36:52;9.90;99.90
3756;DHT22;1893;52.526;13.360;2023-05-17T06:39:18;9.90;99.90
3756;DHT22;1893;52.526;13.360;2023-05-17T06:41:44;10.10;99.90
3756;DHT22;1893;52.526;13.360;2023-05-17T06:44:09;10.50;99.90
3756;DHT22;1893;52.526;13.360;2023-05-17T06:46:35;10.50;99.90
3756;DHT22;1893;52.526;13.360;2023-05-17T06:49:00;10.70;99.90
3756;DHT22;1893;52.526;13.360;2023-05-17T06:51:26;11.00;99.90
3756;DHT22;1893;52.526;13.360;2023-05-17T06:53:51;11.10;99.90
3756;DHT22;1893;52.526;13.360;2023-05-17T06:56:17;11.20;99.90
3756;DHT22;1893;52.526;13.360;2023-05-17T06:58:43;11.60;99.90
3756;DHT22;1893;52.526;13.360;2023-05-17T07:01:08;11.60;99.90
3756;DHT22;1893;52.526;13.360;2023-05-17T07:03:34;11.40;99.90
3756;DHT22;1893;52.526;13.360;2023-05-17T07:06:00;11.30;99.90
3756;DHT22;1893;52.526;13.360;2023-05-17T07:08:26;11.40;99.90
3756;DHT22;1893;52.526;13.360;2023-05-17T07:10:52;11.50;99.90
3756;DHT22;1893;52.526;13.360;2023-05-17T07:13:17;12.00;99.90
3756;DHT22;1893;52.526;13.360;2023-05-17T07:15:44;12.30;99.90
3756;DHT22;1893;52.526;13.360;2023-05-17T07:18:10;12.10;99.90
3756;DHT22;1893;52.526;13.360;2023-05-17T07:20:35;12.00;99.90
3756;DHT22;1893;52.526;13.360;2023-05-17T07:23:01;12.00;99.90
3756;DHT22;1893;52.526;13.360;2023-05-17T07:25:26;12.40;99.90
3756;DHT22;1893;52.526;13.360;2023-05-17T07:27:52;12.40;99.90
3756;DHT22;1893;52.526;13.360;2023-05-17T07:30:18;12.20;99.90
3756;DHT22;1893;52.526;13.360;2023-05-17T07:32:43;11.50;99.90
3756;DHT22;1893;52.526;13.360;2023-05-17T07:35:09;11.30;99.90
3756;DHT22;1893;52.526;13.360;2023-05-17T07:37:35;11.50;99.90
3756;DHT22;1893;52.526;13.360;2023-05-17T07:40:00;11.70;99.90
3756;DHT22;1893;52.526;13.360;2023-05-17T07:42:26;12.10;99.90
3756;DHT22;1893;52.526;13.360;2023-05-17T07:44:52;12.80;99.90
3756;DHT22;1893;52.526;13.360;2023-05-17T07:47:17;13.30;99.90
3756;DHT22;1893;52.526;13.360;2023-05-17T07:49:43;13.10;99.90
3756;DHT22;1893;52.526;13.360;2023-05-17T07:52:08;13.00;99.90
3756;DHT22;1893;52.526;13.360;2023-05-17T07:54:34;13.10;99.90
3756;DHT22;1893;52.526;13.360;2023-05-17T07:57:00;13.50;99.90
3756;DHT22;1893;52.526;13.360;2023-05-17T07:59:25;13.20;99.90
3756;DHT22;1893;52.526;13.360;2023-05-17T08:01:51;13.00;99.90
3756;DHT22;1893;52.526;13.360;2023-05-17T08:04:17;13.40;99.90
3756;DHT22;1893;52.526;13.360;2023-05-17T08:06:43;13.30;99.90
3756;DHT22;1893;52.526;13.360;2023-05-17T08:09:13;13.50;99.90
3756;DHT22;1893;52.526;13.360;2023-05-17T08:11:41;14.00;99.90
3756;DHT22;1893;52.526;13.360;2023-05-17T08:14:11;13.70;99.90
3756;DHT22;1893;52.526;13.360;2023-05-17T08:16:37;13.40;99.90
3756;DHT22;1893;52.526;13.360;2023-05-17T08:19:03;13.40;99.90
3756;DHT22;1893;52.526;13.360;2023-05-17T08:21:28;13.30;99.90
3756;DHT22;1893;52.526;13.360;2023-05-17T08:23:54;13.40;99.90
3756;DHT22;1893;52.526;13.360;2023-05-17T08:26:19;13.70;99.90
3756;DHT22;1893;52.526;13.360;2023-05-17T08:28:45;13.90;99.90
3756;DHT22;1893;52.526;13.360;2023-05-17T08:31:11;13.70;99.90
3756;DHT22;1893;52.526;13.360;2023-05-17T08:33:36;13.80;99.90
3756;DHT22;1893;52.526;13.360;2023-05-17T08:36:02;14.10;99.90
3756;DHT22;1893;52.526;13.360;2023-05-17T08:38:32;13.60;99.90
3756;DHT22;1893;52.526;13.360;2023-05-17T08:40:59;13.00;99.90
3756;DHT22;1893;52.526;13.360;2023-05-17T08:43:24;13.50;99.90
3756;DHT22;1893;52.526;13.360;2023-05-17T08:45:50;13.90;99.90
3756;DHT22;1893;52.526;13.360;2023-05-17T08:48:17;13.50;99.90
3756;DHT22;1893;52.526;13.360;2023-05-17T08:50:46;14.10;99.90
3756;DHT22;1893;52.526;13.360;2023-05-17T08:53:12;14.20;99.90
3756;DHT22;1893;52.526;13.360;2023-05-17T08:55:44;14.70;99.90
3756;DHT22;1893;52.526;13.360;2023-05-17T08:58:10;14.70;99.90
3756;DHT22;1893;52.526;13.360;2023-05-17T09:00:37;14.40;99.90
3756;DHT22;1893;52.526;13.360;2023-05-17T09:03:04;14.30;99.90
3756;DHT22;1893;52.526;13.360;2023-05-17T09:05:30;14.90;99.90
3756;DHT22;1893;52.526;13.360;2023-05-17T09:07:58;15.30;99.90
3756;DHT22;1893;52.526;13.360;2023-05-17T09:10:25;15.10;99.90
3756;DHT22;1893;52.526;13.360;2023-05-17T09:12:51;15.20;99.90
3756;DHT22;1893;52.526;13.360;2023-05-17T09:15:19;15.10;99.90
3756;DHT22;1893;52.526;13.360;2023-05-17T09:17:54;15.80;99.90
3756;DHT22;1893;52.526;13.360;2023-05-17T09:20:24;15.30;99.90
3756;DHT22;1893;52.526;13.360;2023-05-17T09:22:54;14.90;99.90
3756;DHT22;1893;52.526;13.360;2023-05-17T09:25:20;14.40;99.90
3756;DHT22;1893;52.526;13.360;2023-05-17T09:27:51;15.50;99.90
3756;DHT22;1893;52.526;13.360;2023-05-17T09:30:17;16.20;99.90
3756;DHT22;1893;52.526;13.360;2023-05-17T09:32:43;14.90;99.60
3756;DHT22;1893;52.526;13.360;2023-05-17T09:35:10;14.60;99.90
3756;DHT22;1893;52.526;13.360;2023-05-17T09:37:41;14.40;98.90
3756;DHT22;1893;52.526;13.360;2023-05-17T09:40:07;15.50;99.90
3756;DHT22;1893;52.526;13.360;2023-05-17T09:42:33;16.10;99.00
3756;DHT22;1893;52.526;13.360;2023-05-17T09:45:03;16.10;98.60
3756;DHT22;1893;52.526;13.360;2023-05-17T09:47:30;16.80;97.00
3756;DHT22;1893;52.526;13.360;2023-05-17T09:49:57;15.90;93.20
3756;DHT22;1893;52.526;13.360;2023-05-17T09:52:25;16.10;92.90
3756;DHT22;1893;52.526;13.360;2023-05-17T09:54:57;16.30;92.60
3756;DHT22;1893;52.526;13.360;2023-05-17T09:57:25;16.90;91.60
3756;DHT22;1893;52.526;13.360;2023-05-17T09:59:54;17.90;91.50
3756;DHT22;1893;52.526;13.360;2023-05-17T10:02:26;17.90;87.80
3756;DHT22;1893;52.526;13.360;2023-05-17T10:04:55;18.30;89.10
3756;DHT22;1893;52.526;13.360;2023-05-17T10:07:21;17.90;85.60
3756;DHT22;1893;52.526;13.360;2023-05-17T10:09:50;18.20;85.60
3756;DHT22;1893;52.526;13.360;2023-05-17T10:12:21;18.20;80.00
3756;DHT22;1893;52.526;13.360;2023-05-17T10:14:47;18.70;82.20
3756;DHT22;1893;52.526;13.360;2023-05-17T10:17:14;19.10;75.20
3756;DHT22;1893;52.526;13.360;2023-05-17T10:19:40;18.80;72.00
3756;DHT22;1893;52.526;13.360;2023-05-17T10:22:06;18.90;72.30
3756;DHT22;1893;52.526;13.360;2023-05-17T10:24:34;19.00;71.70
3756;DHT22;1893;52.526;13.360;2023-05-17T10:27:01;19.10;69.60
3756;DHT22;1893;52.526;13.360;2023-05-17T10:29:29;19.00;67.40
3756;DHT22;1893;52.526;13.360;2023-05-17T10:31:57;18.90;65.30
3756;DHT22;1893;52.526;13.360;2023-05-17T10:34:25;18.90;65.70
3756;DHT22;1893;52.526;13.360;2023-05-17T10:36:52;19.30;63.50
3756;DHT22;1893;52.526;13.360;2023-05-17T10:39:20;19.00;60.90
3756;DHT22;1893;52.526;13.360;2023-05-17T10:41:48;19.60;63.20
3756;DHT22;1893;52.526;13.360;2023-05-17T10:44:15;19.40;58.90
3756;DHT22;1893;52.526;13.360;2023-05-17T10:46:50;19.90;60.40
3756;DHT22;1893;52.526;13.360;2023-05-17T10:49:17;20.80;58.50
3756;DHT22;1893;52.526;13.360;2023-05-17T10:51:44;20.20;56.20
3756;DHT22;1893;52.526;13.360;2023-05-17T10:54:11;20.60;56.70
3756;DHT22;1893;52.526;13.360;2023-05-17T10:56:39;21.40;55.00
3756;DHT22;1893;52.526;13.360;2023-05-17T10:59:22;21.40;54.30
3756;DHT22;1893;52.526;13.360;2023-05-17T11:02:04;20.30;54.30
3756;DHT22;1893;52.526;13.360;2023-05-17T11:04:38;20.30;53.50
3756;DHT22;1893;52.526;13.360;2023-05-17T11:09:45;21.00;55.60
3756;DHT22;1893;52.526;13.360;2023-05-17T11:12:13;21.00;53.50
3756;DHT22;1893;52.526;13.360;2023-05-17T11:14:57;20.60;54.10
3756;DHT22;1893;52.526;13.360;2023-05-17T11:17:27;20.60;53.60
3756;DHT22;1893;52.526;13.360;2023-05-17T11:20:08;21.30;53.30
3756;DHT22;1893;52.526;13.360;2023-05-17T11:22:40;21.30;53.60
3756;DHT22;1893;52.526;13.360;2023-05-17T11:25:11;19.30;49.50
3756;DHT22;1893;52.526;13.360;2023-05-17T11:27:50;18.60;53.40
3756;DHT22;1893;52.526;13.360;2023-05-17T11:30:30;19.00;52.30
3756;DHT22;1893;52.526;13.360;2023-05-17T11:33:05;19.90;51.50
3756;DHT22;1893;52.526;13.360;2023-05-17T11:35:35;19.20;51.90
3756;DHT22;1893;52.526;13.360;2023-05-17T11:38:27;17.90;50.70
3756;DHT22;1893;52.526;13.360;2023-05-17T11:40:56;17.90;51.40
3756;DHT22;1893;52.526;13.360;2023-05-17T11:43:24;17.20;52.10
3756;DHT22;1893;52.526;13.360;2023-05-17T11:45:55;17.00;54.30
3756;DHT22;1893;52.526;13.360;2023-05-17T11:48:29;17.10;54.00
3756;DHT22;1893;52.526;13.360;2023-05-17T11:50:55;16.80;54.50
3756;DHT22;1893;52.526;13.360;2023-05-17T11:53:22;16.70;53.10
3756;DHT22;1893;52.526;13.360;2023-05-17T11:55:49;16.60;55.20
3756;DHT22;1893;52.526;13.360;2023-05-17T11:58:17;16.40;54.20
3756;DHT22;1893;52.526;13.360;2023-05-17T12:00:44;16.20;52.00
3756;DHT22;1893;52.526;13.360;2023-05-17T12:03:22;16.10;53.60
3756;DHT22;1893;52.526;13.360;2023-05-17T12:06:11;16.50;55.70
3756;DHT22;1893;52.526;13.360;2023-05-17T12:08:37;16.60;54.20
3756;DHT22;1893;52.526;13.360;2023-05-17T12:11:04;16.60;55.60
3756;DHT22;1893;52.526;13.360;2023-05-17T12:13:32;16.90;56.30
3756;DHT22;1893;52.526;13.360;2023-05-17T12:16:08;17.20;56.00
3756;DHT22;1893;52.526;13.360;2023-05-17T12:18:42;16.60;55.90
3756;DHT22;1893;52.526;13.360;2023-05-17T12:21:11;16.20;55.60
3756;DHT22;1893;52.526;13.360;2023-05-17T12:23:41;16.20;55.20
3756;DHT22;1893;52.526;13.360;2023-05-17T12:26:11;16.40;55.60
3756;DHT22;1893;52.526;13.360;2023-05-17T12:28:45;16.70;55.00
3756;DHT22;1893;52.526;13.360;2023-05-17T12:31:14;16.60;54.20
3756;DHT22;1893;52.526;13.360;2023-05-17T12:33:42;16.10;54.30
3756;DHT22;1893;52.526;13.360;2023-05-17T12:36:09;16.30;55.20
3756;DHT22;1893;52.526;13.360;2023-05-17T12:38:38;16.60;55.40
3756;DHT22;1893;52.526;13.360;2023-05-17T12:41:06;16.80;56.10
3756;DHT22;1893;52.526;13.360;2023-05-17T12:43:33;17.00;53.40
3756;DHT22;1893;52.526;13.360;2023-05-17T12:46:07;16.80;54.70
3756;DHT22;1893;52.526;13.360;2023-05-17T12:48:35;16.60;54.70
3756;DHT22;1893;52.526;13.360;2023-05-17T12:53:40;16.30;53.50
3756;DHT22;1893;52.526;13.360;2023-05-17T12:56:06;16.60;54.30
3756;DHT22;1893;52.526;13.360;2023-05-17T12:58:33;16.80;54.80
3756;DHT22;1893;52.526;13.360;2023-05-17T13:01:02;16.90;54.30
3756;DHT22;1893;52.526;13.360;2023-05-17T13:03:31;16.90;53.30
3756;DHT22;1893;52.526;13.360;2023-05-17T13:06:04;16.90;53.90
3756;DHT22;1893;52.526;13.360;2023-05-17T13:08:31;16.90;53.30
3756;DHT22;1893;52.526;13.360;2023-05-17T13:11:11;17.30;54.00
3756;DHT22;1893;52.526;13.360;2023-05-17T13:13:37;17.40;53.40
3756;DHT22;1893;52.526;13.360;2023-05-17T13:16:03;17.50;53.40
3756;DHT22;1893;52.526;13.360;2023-05-17T13:18:29;17.30;53.10
3756;DHT22;1893;52.526;13.360;2023-05-17T13:20:59;16.90;54.30
3756;DHT22;1893;52.526;13.360;2023-05-17T13:23:25;16.80;54.70
3756;DHT22;1893;52.526;13.360;2023-05-17T13:25:51;16.70;54.20
3756;DHT22;1893;52.526;13.360;2023-05-17T13:28:18;16.60;55.40
3756;DHT22;1893;52.526;13.360;2023-05-17T13:30:44;16.10;55.60
3756;DHT22;1893;52.526;13.360;2023-05-17T13:33:15;15.70;55.70
3756;DHT22;1893;52.526;13.360;2023-05-17T13:35:41;15.90;56.40
3756;DHT22;1893;52.526;13.360;2023-05-17T13:38:06;16.20;57.20
3756;DHT22;1893;52.526;13.360;2023-05-17T13:40:32;16.40;57.10
3756;DHT22;1893;52.526;13.360;2023-05-17T13:42:57;16.70;57.50
3756;DHT22;1893;52.526;13.360;2023-05-17T13:45:23;16.70;57.60
3756;DHT22;1893;52.526;13.360;2023-05-17T13:47:49;16.50;57.80
3756;DHT22;1893;52.526;13.360;2023-05-17T13:50:14;16.40;57.40
3756;DHT22;1893;52.526;13.360;2023-05-17T13:52:41;16.40;57.30
3756;DHT22;1893;52.526;13.360;2023-05-17T13:55:08;16.50;59.00
3756;DHT22;1893;52.526;13.360;2023-05-17T13:57:33;16.50;58.30
3756;DHT22;1893;52.526;13.360;2023-05-17T13:59:59;16.40;57.90
3756;DHT22;1893;52.526;13.360;2023-05-17T14:02:24;16.20;58.60
3756;DHT22;1893;52.526;13.360;2023-05-17T14:04:50;15.90;57.60
3756;DHT22;1893;52.526;13.360;2023-05-17T14:07:16;16.00;58.70
3756;DHT22;1893;52.526;13.360;2023-05-17T14:09:42;16.00;58.20
3756;DHT22;1893;52.526;13.360;2023-05-17T14:12:08;16.10;57.90
3756;DHT22;1893;52.526;13.360;2023-05-17T14:14:33;16.30;57.00
3756;DHT22;1893;52.526;13.360;2023-05-17T14:16:59;16.30;56.70
3756;DHT22;1893;52.526;13.360;2023-05-17T14:19:26;16.10;56.50
3756;DHT22;1893;52.526;13.360;2023-05-17T14:21:51;16.00;56.20
3756;DHT22;1893;52.526;13.360;2023-05-17T14:24:17;15.80;56.30
3756;DHT22;1893;52.526;13.360;2023-05-17T14:26:42;15.90;56.70
3756;DHT22;1893;52.526;13.360;2023-05-17T14:29:08;16.00;57.10
3756;DHT22;1893;52.526;13.360;2023-05-17T14:31:34;15.90;56.80
3756;DHT22;1893;52.526;13.360;2023-05-17T14:34:00;16.20;57.40
3756;DHT22;1893;52.526;13.360;2023-05-17T14:36:27;16.40;57.10
3756;DHT22;1893;52.526;13.360;2023-05-17T14:38:53;16.50;56.90
3756;DHT22;1893;52.526;13.360;2023-05-17T14:41:18;16.30;57.00
3756;DHT22;1893;52.526;13.360;2023-05-17T14:43:44;16.20;57.20
3756;DHT22;1893;52.526;13.360;2023-05-17T14:46:10;16.60;57.10
3756;DHT22;1893;52.526;13.360;2023-05-17T14:48:37;16.70;57.30
3756;DHT22;1893;52.526;13.360;2023-05-17T14:51:02;16.70;57.60
3756;DHT22;1893;52.526;13.360;2023-05-17T14:53:28;16.60;58.10
3756;DHT22;1893;52.526;13.360;2023-05-17T14:55:57;16.20;56.20
3756;DHT22;1893;52.526;13.360;2023-05-17T14:58:26;16.50;57.40
3756;DHT22;1893;52.526;13.360;2023-05-17T15:00:55;16.70;57.50
3756;DHT22;1893;52.526;13.360;2023-05-17T15:03:24;16.50;56.90
3756;DHT22;1893;52.526;13.360;2023-05-17T15:05:54;16.20;57.50
3756;DHT22;1893;52.526;13.360;2023-05-17T15:08:20;15.90;58.40
3756;DHT22;1893;52.526;13.360;2023-05-17T15:10:47;15.90;58.40
3756;DHT22;1893;52.526;13.360;2023-05-17T15:13:13;15.80;58.20
3756;DHT22;1893;52.526;13.360;2023-05-17T15:15:39;16.10;59.10
3756;DHT22;1893;52.526;13.360;2023-05-17T15:18:05;16.30;57.80
3756;DHT22;1893;52.526;13.360;2023-05-17T15:20:31;16.30;57.20
3756;DHT22;1893;52.526;13.360;2023-05-17T15:22:57;16.30;56.90
3756;DHT22;1893;52.526;13.360;2023-05-17T15:25:22;16.10;56.70
3756;DHT22;1893;52.526;13.360;2023-05-17T15:27:48;16.40;57.10
3756;DHT22;1893;52.526;13.360;2023-05-17T15:30:14;16.10;56.10
3756;DHT22;1893;52.526;13.360;2023-05-17T15:32:39;16.30;56.40
3756;DHT22;1893;52.526;13.360;2023-05-17T15:35:06;16.40;55.90
3756;DHT22;1893;52.526;13.360;2023-05-17T15:37:32;16.70;57.70
3756;DHT22;1893;52.526;13.360;2023-05-17T15:40:06;16.60;55.90
3756;DHT22;1893;52.526;13.360;2023-05-17T15:42:32;16.30;56.10
3756;DHT22;1893;52.526;13.360;2023-05-17T15:44:58;16.40;56.20
3756;DHT22;1893;52.526;13.360;2023-05-17T15:47:23;16.20;56.80
3756;DHT22;1893;52.526;13.360;2023-05-17T15:49:49;16.30;57.60
3756;DHT22;1893;52.526;13.360;2023-05-17T15:52:15;16.60;56.60
3756;DHT22;1893;52.526;13.360;2023-05-17T15:54:41;16.80;56.00
3756;DHT22;1893;52.526;13.360;2023-05-17T15:57:07;16.90;54.70
3756;DHT22;1893;52.526;13.360;2023-05-17T15:59:33;16.70;55.20
3756;DHT22;1893;52.526;13.360;2023-05-17T16:01:58;16.50;55.90
3756;DHT22;1893;52.526;13.360;2023-05-17T16:04:24;16.50;56.20